This is the latest recevied weather packets stored in our database for station/object KE6LRO. If no packets are shown the sender has not sent any weather packets the latest 10 day(s).
| Time | Temp. | Humidity | Pressure | Rain* | Wind** | Luminosity | Snow |
|---|---|---|---|---|---|---|---|
| 1777488352 | 12.78° C | 57% | 1026.4 hPa | 0 mm | - | 893 W/m² | - |
| 1777488050 | 13.33° C | 58% | 1026.4 hPa | 0 mm | - | 832 W/m² | - |
| 1777487747 | 14.44° C | 54% | 1026.3 hPa | 0 mm | - | 334 W/m² | - |
| 1777487445 | 12.78° C | 59% | 1026.7 hPa | 0 mm | - | 907 W/m² | - |
| 1777487142 | 12.78° C | 58% | 1026.6 hPa | 0 mm | - | 414 W/m² | - |
| 1777486838 | 12.78° C | 60% | 1026.5 hPa | 0 mm | - | 898 W/m² | - |
| 1777486535 | 12.22° C | 59% | 1026.6 hPa | 0 mm | - | 919 W/m² | - |
| 1777486233 | 11.11° C | 65% | 1027 hPa | 0 mm | - | 905 W/m² | - |
| 1777485930 | 11.11° C | 65% | 1027 hPa | 0 mm | - | 262 W/m² | - |
| 1777485627 | 10.56° C | 66% | 1026.8 hPa | 0 mm | - | 224 W/m² | - |
| 1777485327 | 11.11° C | 64% | 1026.8 hPa | 0 mm | - | 209 W/m² | - |
| 1777485024 | 11.11° C | 63% | 1026.6 hPa | 0 mm | - | 223 W/m² | - |
| 1777484721 | 10.56° C | 67% | 1026.6 hPa | 0 mm | - | 811 W/m² | - |
| 1777484417 | 10.56° C | 64% | 1026.7 hPa | 0 mm | - | 211 W/m² | - |
| 1777484115 | 11.11° C | 66% | 1026.7 hPa | 0 mm | - | 145 W/m² | - |
| 1777483810 | 11.11° C | 65% | 1026.6 hPa | 0 mm | - | 720 W/m² | - |
| 1777483507 | 11.11° C | 66% | 1026.8 hPa | 0 mm | - | 730 W/m² | - |
| 1777483201 | 10° C | 69% | 1026.6 hPa | 0 mm | - | 242 W/m² | - |
| 1777482898 | 8.89° C | 81% | 1027 hPa | 0 mm | - | 178 W/m² | - |
| 1777482594 | 9.44° C | 81% | 1027 hPa | 0 mm | - | 328 W/m² | - |
| 1777482292 | 10° C | 73% | 1027 hPa | 0 mm | - | 139 W/m² | - |
| 1777481989 | 10.56° C | 71% | 1027 hPa | 0 mm | - | 109 W/m² | - |
| 1777481687 | 10° C | 66% | 1027 hPa | 0 mm | - | 651 W/m² | - |
| 1777481383 | 9.44° C | 71% | 1026.8 hPa | 0 mm | - | 658 W/m² | - |
| 1777481079 | 10° C | 71% | 1026.7 hPa | 0 mm | - | 116 W/m² | - |
* Rain latest hour (hover to see other rain measurements)
** Current wind speed in m/s (hover to see current wind gust speed)